Clearfield, Utah
Current Conditions -  °F | °C
As of 1:58 AM on Saturday 25 Oct 2014 (Local Time) from KHIF Reporting Station
Clear Clear  
Wind Chill: 59°   Ceiling: Unl
Heat Index: 59°   Visibility: 10mi
Dew Point: 27°   Wind: 7mph
Humidity: 30%   Direction: 150°SSE
Pressure: 30.11"   Gusts: NA
Location:  41.11°N, 112.02°W
Report Text: KHIF 250758Z AUTO 15006KT 10SM CLR 15/M03 A3011 RMK AO2 SLP148 T01501027
Loading
Personal Weather Stations






























Interactive Weather Map
Tropical Storm Tracking
New forecast layout! Learn more

10-Day Weather Forecast

Advertisements
Track Severe Weather on mobile